sensor_id;sensor_type;location;lat;lon;timestamp;temperature;humidity
57719;DHT22;43561;50.090;18.522;2022-11-20T00:06:40;-5.80;99.90
57719;DHT22;43561;50.090;18.522;2022-11-20T00:16:42;-5.90;99.90
57719;DHT22;43561;50.090;18.522;2022-11-20T00:26:44;-6.00;99.90
57719;DHT22;43561;50.090;18.522;2022-11-20T00:36:46;-6.10;99.90
57719;DHT22;43561;50.090;18.522;2022-11-20T00:46:48;-6.00;99.90
57719;DHT22;43561;50.090;18.522;2022-11-20T00:56:52;-6.10;99.90
57719;DHT22;43561;50.090;18.522;2022-11-20T01:06:54;-6.10;99.90
57719;DHT22;43561;50.090;18.522;2022-11-20T01:16:57;-6.10;99.90
57719;DHT22;43561;50.090;18.522;2022-11-20T01:26:59;-6.30;99.90
57719;DHT22;43561;50.090;18.522;2022-11-20T01:37:01;-6.00;99.90
57719;DHT22;43561;50.090;18.522;2022-11-20T01:47:04;-6.10;99.90
57719;DHT22;43561;50.090;18.522;2022-11-20T01:57:10;-6.20;99.90
57719;DHT22;43561;50.090;18.522;2022-11-20T02:07:13;-6.40;99.90
57719;DHT22;43561;50.090;18.522;2022-11-20T02:17:16;-6.60;99.90
57719;DHT22;43561;50.090;18.522;2022-11-20T02:27:18;-7.00;99.90
57719;DHT22;43561;50.090;18.522;2022-11-20T02:37:21;-6.80;99.90
57719;DHT22;43561;50.090;18.522;2022-11-20T02:47:23;-6.80;99.90
57719;DHT22;43561;50.090;18.522;2022-11-20T02:57:25;-6.70;99.90
57719;DHT22;43561;50.090;18.522;2022-11-20T03:07:27;-6.40;99.90
57719;DHT22;43561;50.090;18.522;2022-11-20T03:17:29;-6.50;99.90
57719;DHT22;43561;50.090;18.522;2022-11-20T03:27:33;-6.50;99.90
57719;DHT22;43561;50.090;18.522;2022-11-20T03:37:35;-6.50;99.90
57719;DHT22;43561;50.090;18.522;2022-11-20T03:47:37;-6.80;99.90
57719;DHT22;43561;50.090;18.522;2022-11-20T03:57:39;-7.50;99.90
57719;DHT22;43561;50.090;18.522;2022-11-20T04:07:41;-7.20;99.90
57719;DHT22;43561;50.090;18.522;2022-11-20T04:17:43;-6.90;99.90
57719;DHT22;43561;50.090;18.522;2022-11-20T04:27:45;-6.50;99.90
57719;DHT22;43561;50.090;18.522;2022-11-20T04:37:47;-6.50;99.90
57719;DHT22;43561;50.090;18.522;2022-11-20T04:47:49;-7.00;99.90
57719;DHT22;43561;50.090;18.522;2022-11-20T04:57:51;-6.90;99.90
57719;DHT22;43561;50.090;18.522;2022-11-20T05:07:53;-6.70;99.90
57719;DHT22;43561;50.090;18.522;2022-11-20T05:17:57;-6.80;99.90
57719;DHT22;43561;50.090;18.522;2022-11-20T05:27:59;-7.20;99.90
57719;DHT22;43561;50.090;18.522;2022-11-20T05:38:01;-7.00;99.90
57719;DHT22;43561;50.090;18.522;2022-11-20T05:48:03;-7.10;99.90
57719;DHT22;43561;50.090;18.522;2022-11-20T05:58:05;-7.20;99.90
57719;DHT22;43561;50.090;18.522;2022-11-20T06:08:07;-6.70;99.90
57719;DHT22;43561;50.090;18.522;2022-11-20T06:18:09;-6.80;99.90
57719;DHT22;43561;50.090;18.522;2022-11-20T06:28:10;-6.90;99.90
57719;DHT22;43561;50.090;18.522;2022-11-20T06:38:12;-6.90;99.90
57719;DHT22;43561;50.090;18.522;2022-11-20T06:48:14;-6.60;99.90
57719;DHT22;43561;50.090;18.522;2022-11-20T06:58:17;-6.40;99.90
57719;DHT22;43561;50.090;18.522;2022-11-20T07:08:19;-6.30;99.90
57719;DHT22;43561;50.090;18.522;2022-11-20T07:18:21;-5.40;99.90
57719;DHT22;43561;50.090;18.522;2022-11-20T07:28:23;-4.80;99.90
57719;DHT22;43561;50.090;18.522;2022-11-20T07:38:25;-4.50;99.90
57719;DHT22;43561;50.090;18.522;2022-11-20T07:48:27;-3.90;99.90
57719;DHT22;43561;50.090;18.522;2022-11-20T07:58:30;-3.50;99.90
57719;DHT22;43561;50.090;18.522;2022-11-20T08:08:32;-3.50;99.90
57719;DHT22;43561;50.090;18.522;2022-11-20T08:18:36;-3.20;99.90
57719;DHT22;43561;50.090;18.522;2022-11-20T08:28:38;-2.90;99.90
57719;DHT22;43561;50.090;18.522;2022-11-20T08:38:40;-2.50;99.90
57719;DHT22;43561;50.090;18.522;2022-11-20T08:48:43;-1.90;99.90
57719;DHT22;43561;50.090;18.522;2022-11-20T08:58:45;-1.80;99.90
57719;DHT22;43561;50.090;18.522;2022-11-20T09:09:07;-1.90;99.90
57719;DHT22;43561;50.090;18.522;2022-11-20T09:19:09;-1.70;99.90
57719;DHT22;43561;50.090;18.522;2022-11-20T09:29:34;-1.20;99.90
57719;DHT22;43561;50.090;18.522;2022-11-20T09:39:43;-1.10;99.90
57719;DHT22;43561;50.090;18.522;2022-11-20T10:00:06;0.10;99.90
57719;DHT22;43561;50.090;18.522;2022-11-20T10:10:31;0.80;99.90
57719;DHT22;43561;50.090;18.522;2022-11-20T10:21:03;1.20;99.90
57719;DHT22;43561;50.090;18.522;2022-11-20T10:31:14;1.30;99.90
57719;DHT22;43561;50.090;18.522;2022-11-20T10:41:23;1.50;99.90
57719;DHT22;43561;50.090;18.522;2022-11-20T10:51:37;1.70;99.90
57719;DHT22;43561;50.090;18.522;2022-11-20T11:01:42;1.90;99.90
57719;DHT22;43561;50.090;18.522;2022-11-20T11:11:44;2.00;99.90
57719;DHT22;43561;50.090;18.522;2022-11-20T11:21:51;1.70;99.90
57719;DHT22;43561;50.090;18.522;2022-11-20T11:32:06;1.90;99.90
57719;DHT22;43561;50.090;18.522;2022-11-20T11:42:17;2.00;99.90
57719;DHT22;43561;50.090;18.522;2022-11-20T11:52:20;2.10;99.90
57719;DHT22;43561;50.090;18.522;2022-11-20T12:12:53;2.30;99.90
57719;DHT22;43561;50.090;18.522;2022-11-20T12:23:05;2.20;99.90
57719;DHT22;43561;50.090;18.522;2022-11-20T12:33:27;2.50;99.90
57719;DHT22;43561;50.090;18.522;2022-11-20T12:43:59;2.90;99.90
57719;DHT22;43561;50.090;18.522;2022-11-20T13:14:47;1.90;99.90
57719;DHT22;43561;50.090;18.522;2022-11-20T13:24:52;1.70;99.90
57719;DHT22;43561;50.090;18.522;2022-11-20T13:34:56;1.70;99.90
57719;DHT22;43561;50.090;18.522;2022-11-20T13:45:09;1.80;99.90
57719;DHT22;43561;50.090;18.522;2022-11-20T14:05:54;1.70;99.90
57719;DHT22;43561;50.090;18.522;2022-11-20T14:15:57;1.70;99.90
57719;DHT22;43561;50.090;18.522;2022-11-20T14:26:00;1.70;99.90
57719;DHT22;43561;50.090;18.522;2022-11-20T14:36:02;1.70;99.90
57719;DHT22;43561;50.090;18.522;2022-11-20T14:46:07;1.80;99.90
57719;DHT22;43561;50.090;18.522;2022-11-20T14:56:09;1.70;99.90
57719;DHT22;43561;50.090;18.522;2022-11-20T15:06:12;2.60;99.90
57719;DHT22;43561;50.090;18.522;2022-11-20T15:16:18;1.60;99.90
57719;DHT22;43561;50.090;18.522;2022-11-20T15:26:25;1.40;99.90
57719;DHT22;43561;50.090;18.522;2022-11-20T15:36:27;1.40;99.90
57719;DHT22;43561;50.090;18.522;2022-11-20T15:46:32;1.40;99.90
57719;DHT22;43561;50.090;18.522;2022-11-20T15:56:34;1.30;99.90
57719;DHT22;43561;50.090;18.522;2022-11-20T16:06:36;1.20;99.90
57719;DHT22;43561;50.090;18.522;2022-11-20T16:16:38;0.90;99.90
57719;DHT22;43561;50.090;18.522;2022-11-20T16:26:41;0.70;99.90
57719;DHT22;43561;50.090;18.522;2022-11-20T16:36:43;0.60;99.90
57719;DHT22;43561;50.090;18.522;2022-11-20T16:46:45;0.50;99.90
57719;DHT22;43561;50.090;18.522;2022-11-20T16:56:47;0.40;99.90
57719;DHT22;43561;50.090;18.522;2022-11-20T17:06:49;0.40;99.90
57719;DHT22;43561;50.090;18.522;2022-11-20T17:16:51;0.40;99.90
57719;DHT22;43561;50.090;18.522;2022-11-20T17:26:53;0.30;99.90
57719;DHT22;43561;50.090;18.522;2022-11-20T17:36:55;0.30;99.90
57719;DHT22;43561;50.090;18.522;2022-11-20T17:47:00;0.30;99.90
57719;DHT22;43561;50.090;18.522;2022-11-20T17:57:02;0.30;99.90
57719;DHT22;43561;50.090;18.522;2022-11-20T18:07:04;0.30;99.90
57719;DHT22;43561;50.090;18.522;2022-11-20T18:17:09;0.40;99.90
57719;DHT22;43561;50.090;18.522;2022-11-20T18:27:16;0.30;99.90
57719;DHT22;43561;50.090;18.522;2022-11-20T18:37:19;0.40;99.90
57719;DHT22;43561;50.090;18.522;2022-11-20T18:47:29;0.40;99.90
57719;DHT22;43561;50.090;18.522;2022-11-20T18:57:31;0.60;99.90
57719;DHT22;43561;50.090;18.522;2022-11-20T19:07:33;0.70;99.90
57719;DHT22;43561;50.090;18.522;2022-11-20T19:17:35;0.80;99.90
57719;DHT22;43561;50.090;18.522;2022-11-20T19:27:37;0.90;99.90
57719;DHT22;43561;50.090;18.522;2022-11-20T19:37:39;1.10;99.90
57719;DHT22;43561;50.090;18.522;2022-11-20T19:47:41;1.10;99.90
57719;DHT22;43561;50.090;18.522;2022-11-20T19:58:03;0.80;99.90
57719;DHT22;43561;50.090;18.522;2022-11-20T20:08:05;0.80;99.90
57719;DHT22;43561;50.090;18.522;2022-11-20T20:18:07;0.90;99.90
57719;DHT22;43561;50.090;18.522;2022-11-20T20:28:08;1.10;99.90
57719;DHT22;43561;50.090;18.522;2022-11-20T20:38:10;1.20;99.90
57719;DHT22;43561;50.090;18.522;2022-11-20T20:48:17;1.40;99.90
57719;DHT22;43561;50.090;18.522;2022-11-20T20:58:19;1.40;99.90
57719;DHT22;43561;50.090;18.522;2022-11-20T21:08:22;1.20;99.90
57719;DHT22;43561;50.090;18.522;2022-11-20T21:18:24;1.00;99.90
57719;DHT22;43561;50.090;18.522;2022-11-20T21:28:27;0.90;99.90
57719;DHT22;43561;50.090;18.522;2022-11-20T21:38:29;0.70;99.90
57719;DHT22;43561;50.090;18.522;2022-11-20T21:48:32;0.50;99.90
57719;DHT22;43561;50.090;18.522;2022-11-20T21:58:36;0.50;99.90
57719;DHT22;43561;50.090;18.522;2022-11-20T22:08:39;0.40;99.90
57719;DHT22;43561;50.090;18.522;2022-11-20T22:18:42;0.20;99.90
57719;DHT22;43561;50.090;18.522;2022-11-20T22:28:49;0.10;99.90
57719;DHT22;43561;50.090;18.522;2022-11-20T22:38:51;0.00;99.90
57719;DHT22;43561;50.090;18.522;2022-11-20T22:48:56;0.00;99.90
57719;DHT22;43561;50.090;18.522;2022-11-20T22:58:59;-0.20;99.90
57719;DHT22;43561;50.090;18.522;2022-11-20T23:09:02;-0.30;99.90
57719;DHT22;43561;50.090;18.522;2022-11-20T23:19:07;-0.30;99.90
57719;DHT22;43561;50.090;18.522;2022-11-20T23:29:09;-0.40;99.90
57719;DHT22;43561;50.090;18.522;2022-11-20T23:39:11;-0.40;99.90
57719;DHT22;43561;50.090;18.522;2022-11-20T23:49:13;-0.40;99.90
57719;DHT22;43561;50.090;18.522;2022-11-20T23:59:15;-0.30;99.90
